»·PEaware :: N1004E KLAX-KSNA

N1004E :: KLAX-KSNA

FLIGHT INFORMATION

Flight Status: Arrived
Operator: Privately registered:
United States
More flights under this callsign
Pilot: Lance W. (24701)
Aircraft: CESSNA T210 TURBO CENTURION
(T210)
More flights by this aircraft type
Origin: KLAX Los Angeles Intl
United States
Destination: KSNA John Wayne-Orange Co
United States
More flights between these airports :: More routes between these airports
Route: +SLI8 SLI
File this flight plan on PilotEdge
Remarks: Request full ILS RWY 20R into KSNA; TEC route LAXP55 says 4000 but easterly implies 5000? For I-5 Rating
Altitude:
(Current/Filed)
5,000ft
Speed:
(Current/Filed)
150kts
Departed: 27-Nov-19 07:52 PM
Arrived: 27-Nov-19 08:29 PM
Distance/Time
Traveled:
31nm/0:37
Distance/Time
To Go:
Arrived

Flight Plot

Page will automatically refresh every two minutes.

Flight plan parsing failed; only flown route is shown


Map Options




Map Legend


Flown Route
Filed Route
Departure Airport
Arrival Airport
Navaid (VOR, NDB)
Fix

Horizontal Profiles

Position Reports

Time Latitude Longitude Heading Altitude Ground
Speed
27-Nov-19 19:35 33.935434 -118.380286 79 95ft 0kts
27-Nov-19 19:36 33.935434 -118.380286 79 95ft 0kts
27-Nov-19 19:37 33.935434 -118.380286 79 95ft 0kts
27-Nov-19 19:38 33.935434 -118.380286 79 95ft 0kts
27-Nov-19 19:41 33.935434 -118.380286 79 95ft 0kts
27-Nov-19 19:42 33.935434 -118.380286 79 95ft 0kts
27-Nov-19 19:43 33.935434 -118.380286 79 95ft 0kts
27-Nov-19 19:44 33.935434 -118.380286 79 95ft 0kts
27-Nov-19 19:45 33.935448 -118.380252 50 95ft 2kts
27-Nov-19 19:46 33.936157 -118.382587 267 95ft 0kts
27-Nov-19 19:47 33.936324 -118.382785 346 95ft 0kts
27-Nov-19 19:48 33.936325 -118.382785 346 95ft 0kts
27-Nov-19 19:49 33.936325 -118.382785 346 95ft 0kts
27-Nov-19 19:50 33.936325 -118.382785 346 95ft 0kts
27-Nov-19 19:51 33.936031 -118.391366 254 327ft 76kts
27-Nov-19 19:52 33.929766 -118.419130 263 1484ft 89kts
27-Nov-19 19:53 33.923544 -118.447894 202 2318ft 97kts
27-Nov-19 19:54 33.901518 -118.463979 210 3285ft 88kts
27-Nov-19 19:55 33.880039 -118.465918 145 4043ft 106kts
27-Nov-19 19:56 33.851137 -118.441011 144 4016ft 138kts
27-Nov-19 19:57 33.819209 -118.413383 144 4013ft 143kts
27-Nov-19 19:58 33.786902 -118.385447 144 4013ft 143kts
27-Nov-19 19:59 33.755028 -118.356293 141 4013ft 143kts
27-Nov-19 20:00 33.724386 -118.325522 138 4013ft 143kts
27-Nov-19 20:01 33.694564 -118.293554 138 4013ft 143kts
27-Nov-19 20:02 33.664801 -118.261635 138 4013ft 143kts
27-Nov-19 20:03 33.646358 -118.224571 56 4012ft 143kts
27-Nov-19 20:04 33.674782 -118.191029 44 4013ft 143kts
27-Nov-19 20:05 33.702785 -118.157659 44 4013ft 141kts
27-Nov-19 20:06 33.729962 -118.123792 47 4013ft 141kts
27-Nov-19 20:07 33.756639 -118.089264 47 4013ft 141kts
27-Nov-19 20:08 33.783304 -118.054793 46 4013ft 141kts
27-Nov-19 20:09 33.803771 -118.014894 62 4013ft 141kts
27-Nov-19 20:10 33.820944 -117.972513 62 4013ft 141kts
27-Nov-19 20:11 33.838796 -117.930569 62 4013ft 141kts
27-Nov-19 20:12 33.856307 -117.888386 63 4013ft 141kts
27-Nov-19 20:13 33.873537 -117.846110 63 4013ft 141kts
27-Nov-19 20:14 33.890809 -117.803734 63 4013ft 141kts
27-Nov-19 20:15 33.907952 -117.761498 64 4013ft 141kts
27-Nov-19 20:16 33.924147 -117.720377 57 4011ft 141kts
27-Nov-19 20:17 33.957913 -117.697781 25 4013ft 141kts
27-Nov-19 20:18 33.981088 -117.713922 243 4011ft 140kts
27-Nov-19 20:19 33.950122 -117.722936 166 4009ft 118kts
27-Nov-19 20:20 33.917800 -117.715978 198 3578ft 136kts
27-Nov-19 20:21 33.885343 -117.735005 206 3405ft 119kts
27-Nov-19 20:22 33.857209 -117.752173 206 3408ft 109kts
27-Nov-19 20:23 33.830627 -117.768367 206 3369ft 109kts
27-Nov-19 20:24 33.803071 -117.785155 206 3222ft 117kts
27-Nov-19 20:25 33.770660 -117.807711 212 2315ft 152kts
27-Nov-19 20:26 33.732723 -117.832448 205 1205ft 155kts
27-Nov-19 20:27 33.696671 -117.856124 199 559ft 135kts
27-Nov-19 20:28 33.676611 -117.868286 207 60ft 29kts
27-Nov-19 20:29 33.675819 -117.870271 53 60ft 0kts
27-Nov-19 20:30 33.676008 -117.870059 66 60ft 6kts
27-Nov-19 20:31 33.676750 -117.870759 352 60ft 0kts
27-Nov-19 20:32 33.676836 -117.870771 353 60ft 0kts
27-Nov-19 20:33 33.676923 -117.870783 353 60ft 0kts

Navigation Log

Ident Type
Flight plan parsing failed, navigation log unavailable